sensor_id;sensor_type;location;lat;lon;timestamp;P1;durP1;ratioP1;P2;durP2;ratioP2
21188;SDS011;39071;52.420;20.896;2022-08-05T00:00:56;9.40;;;6.22;;
21188;SDS011;39071;52.420;20.896;2022-08-05T00:03:22;9.45;;;5.93;;
21188;SDS011;39071;52.420;20.896;2022-08-05T00:05:47;9.23;;;5.68;;
21188;SDS011;39071;52.420;20.896;2022-08-05T00:08:13;9.70;;;5.57;;
21188;SDS011;39071;52.420;20.896;2022-08-05T00:10:38;10.30;;;6.00;;
21188;SDS011;39071;52.420;20.896;2022-08-05T00:13:04;11.73;;;7.18;;
21188;SDS011;39071;52.420;20.896;2022-08-05T00:15:30;10.25;;;5.95;;
21188;SDS011;39071;52.420;20.896;2022-08-05T00:17:55;8.43;;;6.50;;
21188;SDS011;39071;52.420;20.896;2022-08-05T00:20:21;10.68;;;5.53;;
21188;SDS011;39071;52.420;20.896;2022-08-05T00:22:47;9.05;;;5.97;;
21188;SDS011;39071;52.420;20.896;2022-08-05T00:25:13;10.68;;;5.70;;
21188;SDS011;39071;52.420;20.896;2022-08-05T00:27:39;13.60;;;6.20;;
21188;SDS011;39071;52.420;20.896;2022-08-05T00:30:04;8.63;;;5.85;;
21188;SDS011;39071;52.420;20.896;2022-08-05T00:32:30;7.60;;;5.50;;
21188;SDS011;39071;52.420;20.896;2022-08-05T00:34:56;10.63;;;6.13;;
21188;SDS011;39071;52.420;20.896;2022-08-05T00:37:22;7.30;;;5.93;;
21188;SDS011;39071;52.420;20.896;2022-08-05T00:39:47;8.98;;;6.20;;
21188;SDS011;39071;52.420;20.896;2022-08-05T00:42:13;9.52;;;6.50;;
21188;SDS011;39071;52.420;20.896;2022-08-05T00:44:41;9.90;;;5.88;;
21188;SDS011;39071;52.420;20.896;2022-08-05T00:47:07;9.60;;;6.10;;
21188;SDS011;39071;52.420;20.896;2022-08-05T00:49:33;7.75;;;5.70;;
21188;SDS011;39071;52.420;20.896;2022-08-05T00:51:59;9.77;;;5.78;;
21188;SDS011;39071;52.420;20.896;2022-08-05T00:54:25;12.30;;;6.50;;
21188;SDS011;39071;52.420;20.896;2022-08-05T00:56:51;7.68;;;6.47;;
21188;SDS011;39071;52.420;20.896;2022-08-05T00:59:16;7.90;;;5.80;;
21188;SDS011;39071;52.420;20.896;2022-08-05T01:01:42;8.75;;;6.50;;
21188;SDS011;39071;52.420;20.896;2022-08-05T01:04:08;9.25;;;6.35;;
21188;SDS011;39071;52.420;20.896;2022-08-05T01:06:33;7.72;;;6.32;;
21188;SDS011;39071;52.420;20.896;2022-08-05T01:08:59;8.15;;;6.47;;
21188;SDS011;39071;52.420;20.896;2022-08-05T01:11:34;8.50;;;6.10;;
21188;SDS011;39071;52.420;20.896;2022-08-05T01:17:01;9.55;;;6.45;;
21188;SDS011;39071;52.420;20.896;2022-08-05T01:19:38;9.93;;;6.63;;
21188;SDS011;39071;52.420;20.896;2022-08-05T01:30:38;8.87;;;6.17;;
21188;SDS011;39071;52.420;20.896;2022-08-05T01:33:08;14.90;;;6.30;;
21188;SDS011;39071;52.420;20.896;2022-08-05T01:35:39;10.77;;;6.40;;
21188;SDS011;39071;52.420;20.896;2022-08-05T01:38:07;7.25;;;6.05;;
21188;SDS011;39071;52.420;20.896;2022-08-05T01:40:35;7.70;;;5.78;;
21188;SDS011;39071;52.420;20.896;2022-08-05T01:43:03;10.43;;;6.60;;
21188;SDS011;39071;52.420;20.896;2022-08-05T01:45:31;10.23;;;6.40;;
21188;SDS011;39071;52.420;20.896;2022-08-05T01:47:58;8.80;;;6.13;;
21188;SDS011;39071;52.420;20.896;2022-08-05T01:50:26;12.00;;;6.55;;
21188;SDS011;39071;52.420;20.896;2022-08-05T01:52:59;8.27;;;6.30;;
21188;SDS011;39071;52.420;20.896;2022-08-05T01:55:28;7.90;;;6.82;;
21188;SDS011;39071;52.420;20.896;2022-08-05T01:57:56;8.40;;;5.90;;
21188;SDS011;39071;52.420;20.896;2022-08-05T02:00:24;8.20;;;6.47;;
21188;SDS011;39071;52.420;20.896;2022-08-05T02:02:52;7.97;;;6.00;;
21188;SDS011;39071;52.420;20.896;2022-08-05T02:05:23;8.45;;;6.65;;
21188;SDS011;39071;52.420;20.896;2022-08-05T02:07:54;7.43;;;5.55;;
21188;SDS011;39071;52.420;20.896;2022-08-05T02:10:21;9.18;;;7.03;;
21188;SDS011;39071;52.420;20.896;2022-08-05T02:15:23;8.90;;;6.68;;
21188;SDS011;39071;52.420;20.896;2022-08-05T02:17:50;16.02;;;7.10;;
21188;SDS011;39071;52.420;20.896;2022-08-05T02:20:45;6.50;;;5.80;;
21188;SDS011;39071;52.420;20.896;2022-08-05T02:23:16;10.25;;;6.10;;
21188;SDS011;39071;52.420;20.896;2022-08-05T02:25:48;10.70;;;6.30;;
21188;SDS011;39071;52.420;20.896;2022-08-05T02:28:22;7.43;;;6.37;;
21188;SDS011;39071;52.420;20.896;2022-08-05T02:30:52;8.53;;;6.87;;
21188;SDS011;39071;52.420;20.896;2022-08-05T02:33:22;10.00;;;6.47;;
21188;SDS011;39071;52.420;20.896;2022-08-05T02:35:49;7.68;;;6.38;;
21188;SDS011;39071;52.420;20.896;2022-08-05T02:38:17;11.23;;;6.32;;
21188;SDS011;39071;52.420;20.896;2022-08-05T02:40:44;10.07;;;6.82;;
21188;SDS011;39071;52.420;20.896;2022-08-05T02:43:11;11.93;;;6.70;;
21188;SDS011;39071;52.420;20.896;2022-08-05T02:45:41;11.50;;;6.57;;
21188;SDS011;39071;52.420;20.896;2022-08-05T02:48:08;11.23;;;6.45;;
21188;SDS011;39071;52.420;20.896;2022-08-05T02:50:35;10.63;;;6.82;;
21188;SDS011;39071;52.420;20.896;2022-08-05T02:53:02;7.35;;;6.30;;
21188;SDS011;39071;52.420;20.896;2022-08-05T02:55:28;11.30;;;6.70;;
21188;SDS011;39071;52.420;20.896;2022-08-05T02:57:56;11.90;;;6.63;;
21188;SDS011;39071;52.420;20.896;2022-08-05T03:00:23;13.15;;;6.85;;
21188;SDS011;39071;52.420;20.896;2022-08-05T03:02:49;12.35;;;6.78;;
21188;SDS011;39071;52.420;20.896;2022-08-05T03:05:17;11.45;;;6.80;;
21188;SDS011;39071;52.420;20.896;2022-08-05T03:07:44;10.80;;;6.45;;
21188;SDS011;39071;52.420;20.896;2022-08-05T03:10:10;10.75;;;7.07;;
21188;SDS011;39071;52.420;20.896;2022-08-05T03:12:39;9.73;;;6.50;;
21188;SDS011;39071;52.420;20.896;2022-08-05T03:15:06;8.68;;;6.43;;
21188;SDS011;39071;52.420;20.896;2022-08-05T03:17:33;10.23;;;6.22;;
21188;SDS011;39071;52.420;20.896;2022-08-05T03:19:59;8.68;;;6.57;;
21188;SDS011;39071;52.420;20.896;2022-08-05T03:22:25;8.73;;;6.15;;
21188;SDS011;39071;52.420;20.896;2022-08-05T03:24:51;8.38;;;6.85;;
21188;SDS011;39071;52.420;20.896;2022-08-05T03:27:18;7.53;;;6.35;;
21188;SDS011;39071;52.420;20.896;2022-08-05T03:29:44;10.50;;;6.40;;
21188;SDS011;39071;52.420;20.896;2022-08-05T03:32:10;8.75;;;6.22;;
21188;SDS011;39071;52.420;20.896;2022-08-05T03:34:36;9.23;;;6.43;;
21188;SDS011;39071;52.420;20.896;2022-08-05T03:37:04;7.70;;;6.72;;
21188;SDS011;39071;52.420;20.896;2022-08-05T03:39:30;10.48;;;5.78;;
21188;SDS011;39071;52.420;20.896;2022-08-05T03:41:56;8.88;;;6.32;;
21188;SDS011;39071;52.420;20.896;2022-08-05T03:44:22;7.57;;;6.32;;
21188;SDS011;39071;52.420;20.896;2022-08-05T03:46:49;6.78;;;5.97;;
21188;SDS011;39071;52.420;20.896;2022-08-05T03:49:15;12.02;;;6.80;;
21188;SDS011;39071;52.420;20.896;2022-08-05T03:51:59;7.55;;;5.88;;
21188;SDS011;39071;52.420;20.896;2022-08-05T03:54:32;7.80;;;6.22;;
21188;SDS011;39071;52.420;20.896;2022-08-05T03:57:01;12.13;;;7.18;;
21188;SDS011;39071;52.420;20.896;2022-08-05T03:59:36;8.85;;;5.82;;
21188;SDS011;39071;52.420;20.896;2022-08-05T04:02:06;9.32;;;6.60;;
21188;SDS011;39071;52.420;20.896;2022-08-05T04:04:34;9.82;;;4.38;;
21188;SDS011;39071;52.420;20.896;2022-08-05T04:06:59;7.38;;;5.32;;
21188;SDS011;39071;52.420;20.896;2022-08-05T04:09:27;7.28;;;4.88;;
21188;SDS011;39071;52.420;20.896;2022-08-05T04:11:54;4.72;;;4.22;;
21188;SDS011;39071;52.420;20.896;2022-08-05T04:14:20;5.95;;;4.90;;
21188;SDS011;39071;52.420;20.896;2022-08-05T04:16:46;5.22;;;4.32;;
21188;SDS011;39071;52.420;20.896;2022-08-05T04:19:12;6.38;;;4.20;;
21188;SDS011;39071;52.420;20.896;2022-08-05T04:21:38;5.40;;;4.10;;
21188;SDS011;39071;52.420;20.896;2022-08-05T04:24:05;5.18;;;4.45;;
21188;SDS011;39071;52.420;20.896;2022-08-05T04:26:31;8.55;;;4.03;;
21188;SDS011;39071;52.420;20.896;2022-08-05T04:28:57;6.90;;;3.60;;
21188;SDS011;39071;52.420;20.896;2022-08-05T04:31:22;4.93;;;4.00;;
21188;SDS011;39071;52.420;20.896;2022-08-05T04:33:48;6.88;;;3.85;;
21188;SDS011;39071;52.420;20.896;2022-08-05T04:36:13;4.80;;;4.15;;
21188;SDS011;39071;52.420;20.896;2022-08-05T04:38:41;8.73;;;3.83;;
21188;SDS011;39071;52.420;20.896;2022-08-05T04:41:07;6.53;;;3.50;;
21188;SDS011;39071;52.420;20.896;2022-08-05T04:43:33;5.20;;;3.70;;
21188;SDS011;39071;52.420;20.896;2022-08-05T04:45:58;12.63;;;3.60;;
21188;SDS011;39071;52.420;20.896;2022-08-05T04:48:24;6.43;;;3.60;;
21188;SDS011;39071;52.420;20.896;2022-08-05T04:50:50;3.75;;;3.13;;
21188;SDS011;39071;52.420;20.896;2022-08-05T04:53:16;8.25;;;3.83;;
21188;SDS011;39071;52.420;20.896;2022-08-05T04:55:43;9.77;;;3.50;;
21188;SDS011;39071;52.420;20.896;2022-08-05T04:58:15;5.10;;;3.95;;
21188;SDS011;39071;52.420;20.896;2022-08-05T05:00:42;6.88;;;3.95;;
21188;SDS011;39071;52.420;20.896;2022-08-05T05:03:08;9.90;;;4.20;;
21188;SDS011;39071;52.420;20.896;2022-08-05T05:05:35;5.78;;;3.80;;
21188;SDS011;39071;52.420;20.896;2022-08-05T05:08:05;3.90;;;3.53;;
21188;SDS011;39071;52.420;20.896;2022-08-05T05:10:37;5.07;;;3.38;;
21188;SDS011;39071;52.420;20.896;2022-08-05T05:13:10;7.82;;;3.72;;
21188;SDS011;39071;52.420;20.896;2022-08-05T05:15:37;4.18;;;3.75;;
21188;SDS011;39071;52.420;20.896;2022-08-05T05:18:03;5.85;;;4.65;;
21188;SDS011;39071;52.420;20.896;2022-08-05T05:20:29;6.63;;;3.90;;
21188;SDS011;39071;52.420;20.896;2022-08-05T05:22:56;7.90;;;3.33;;
21188;SDS011;39071;52.420;20.896;2022-08-05T05:25:22;5.05;;;3.40;;
21188;SDS011;39071;52.420;20.896;2022-08-05T05:27:48;4.70;;;3.38;;
21188;SDS011;39071;52.420;20.896;2022-08-05T05:30:16;4.18;;;3.65;;
21188;SDS011;39071;52.420;20.896;2022-08-05T05:32:42;7.88;;;5.10;;
21188;SDS011;39071;52.420;20.896;2022-08-05T05:35:08;5.75;;;3.42;;
21188;SDS011;39071;52.420;20.896;2022-08-05T05:37:44;9.30;;;3.85;;
21188;SDS011;39071;52.420;20.896;2022-08-05T05:40:13;6.32;;;4.78;;
21188;SDS011;39071;52.420;20.896;2022-08-05T05:42:39;7.15;;;3.92;;
21188;SDS011;39071;52.420;20.896;2022-08-05T05:45:05;4.93;;;3.63;;
21188;SDS011;39071;52.420;20.896;2022-08-05T05:47:31;7.30;;;3.85;;
21188;SDS011;39071;52.420;20.896;2022-08-05T05:49:58;4.85;;;3.72;;
21188;SDS011;39071;52.420;20.896;2022-08-05T05:52:24;8.60;;;4.65;;
21188;SDS011;39071;52.420;20.896;2022-08-05T05:54:49;4.40;;;4.00;;
21188;SDS011;39071;52.420;20.896;2022-08-05T05:57:15;5.90;;;4.53;;
21188;SDS011;39071;52.420;20.896;2022-08-05T05:59:40;9.10;;;3.88;;
21188;SDS011;39071;52.420;20.896;2022-08-05T06:02:06;9.50;;;5.18;;
21188;SDS011;39071;52.420;20.896;2022-08-05T06:04:32;5.82;;;4.30;;
21188;SDS011;39071;52.420;20.896;2022-08-05T06:06:57;9.57;;;4.53;;
21188;SDS011;39071;52.420;20.896;2022-08-05T06:09:23;11.85;;;4.20;;
21188;SDS011;39071;52.420;20.896;2022-08-05T06:11:49;13.25;;;4.85;;
21188;SDS011;39071;52.420;20.896;2022-08-05T06:14:14;8.20;;;4.10;;
21188;SDS011;39071;52.420;20.896;2022-08-05T06:16:40;10.50;;;3.80;;
21188;SDS011;39071;52.420;20.896;2022-08-05T06:19:06;7.15;;;4.45;;
21188;SDS011;39071;52.420;20.896;2022-08-05T06:21:31;10.13;;;4.45;;
21188;SDS011;39071;52.420;20.896;2022-08-05T06:23:57;5.75;;;3.30;;
21188;SDS011;39071;52.420;20.896;2022-08-05T06:26:23;14.18;;;4.40;;
21188;SDS011;39071;52.420;20.896;2022-08-05T06:28:49;9.10;;;4.07;;
21188;SDS011;39071;52.420;20.896;2022-08-05T06:31:15;7.93;;;3.58;;
21188;SDS011;39071;52.420;20.896;2022-08-05T06:33:40;8.80;;;3.78;;
21188;SDS011;39071;52.420;20.896;2022-08-05T06:36:06;9.20;;;4.03;;
21188;SDS011;39071;52.420;20.896;2022-08-05T06:38:32;11.98;;;3.28;;
21188;SDS011;39071;52.420;20.896;2022-08-05T06:40:57;5.25;;;3.33;;
21188;SDS011;39071;52.420;20.896;2022-08-05T06:43:23;10.57;;;3.88;;
21188;SDS011;39071;52.420;20.896;2022-08-05T06:45:49;6.38;;;3.55;;
21188;SDS011;39071;52.420;20.896;2022-08-05T06:48:15;9.52;;;5.45;;
21188;SDS011;39071;52.420;20.896;2022-08-05T06:50:40;9.02;;;4.38;;
21188;SDS011;39071;52.420;20.896;2022-08-05T06:53:06;7.03;;;3.65;;
21188;SDS011;39071;52.420;20.896;2022-08-05T06:55:32;5.75;;;3.35;;
21188;SDS011;39071;52.420;20.896;2022-08-05T07:12:01;8.23;;;2.63;;
21188;SDS011;39071;52.420;20.896;2022-08-05T07:14:27;6.07;;;2.78;;
21188;SDS011;39071;52.420;20.896;2022-08-05T07:17:12;5.25;;;2.60;;
21188;SDS011;39071;52.420;20.896;2022-08-05T07:19:37;9.48;;;2.63;;
21188;SDS011;39071;52.420;20.896;2022-08-05T07:22:03;8.38;;;2.97;;
21188;SDS011;39071;52.420;20.896;2022-08-05T07:24:29;3.53;;;2.42;;
21188;SDS011;39071;52.420;20.896;2022-08-05T07:26:55;8.15;;;2.92;;
21188;SDS011;39071;52.420;20.896;2022-08-05T07:29:20;5.53;;;3.13;;
21188;SDS011;39071;52.420;20.896;2022-08-05T07:31:46;9.90;;;2.78;;
21188;SDS011;39071;52.420;20.896;2022-08-05T07:34:12;6.53;;;2.88;;
21188;SDS011;39071;52.420;20.896;2022-08-05T07:36:38;5.22;;;2.60;;
21188;SDS011;39071;52.420;20.896;2022-08-05T07:39:04;6.53;;;3.22;;
21188;SDS011;39071;52.420;20.896;2022-08-05T07:41:31;7.72;;;3.30;;
21188;SDS011;39071;52.420;20.896;2022-08-05T07:43:57;9.25;;;2.42;;
21188;SDS011;39071;52.420;20.896;2022-08-05T07:46:24;6.53;;;3.00;;
21188;SDS011;39071;52.420;20.896;2022-08-05T07:48:53;13.10;;;2.90;;
21188;SDS011;39071;52.420;20.896;2022-08-05T07:51:19;4.60;;;2.25;;
21188;SDS011;39071;52.420;20.896;2022-08-05T07:53:45;3.42;;;2.65;;
21188;SDS011;39071;52.420;20.896;2022-08-05T07:56:10;6.15;;;2.70;;
21188;SDS011;39071;52.420;20.896;2022-08-05T07:58:36;4.30;;;2.28;;
21188;SDS011;39071;52.420;20.896;2022-08-05T08:01:02;7.07;;;2.47;;
21188;SDS011;39071;52.420;20.896;2022-08-05T08:03:27;5.55;;;2.35;;
21188;SDS011;39071;52.420;20.896;2022-08-05T08:05:53;3.95;;;2.13;;
21188;SDS011;39071;52.420;20.896;2022-08-05T08:08:19;5.60;;;2.92;;
21188;SDS011;39071;52.420;20.896;2022-08-05T08:10:45;8.95;;;2.50;;
21188;SDS011;39071;52.420;20.896;2022-08-05T08:13:10;5.53;;;2.28;;
21188;SDS011;39071;52.420;20.896;2022-08-05T08:15:36;2.63;;;2.42;;
21188;SDS011;39071;52.420;20.896;2022-08-05T08:18:02;7.15;;;3.22;;
21188;SDS011;39071;52.420;20.896;2022-08-05T08:20:28;4.93;;;2.60;;
21188;SDS011;39071;52.420;20.896;2022-08-05T08:22:55;7.95;;;2.88;;
21188;SDS011;39071;52.420;20.896;2022-08-05T08:25:23;7.60;;;2.92;;
21188;SDS011;39071;52.420;20.896;2022-08-05T08:27:50;3.88;;;2.70;;
21188;SDS011;39071;52.420;20.896;2022-08-05T08:30:15;2.90;;;2.53;;
21188;SDS011;39071;52.420;20.896;2022-08-05T08:32:41;6.05;;;2.28;;
21188;SDS011;39071;52.420;20.896;2022-08-05T08:35:07;9.20;;;2.42;;
21188;SDS011;39071;52.420;20.896;2022-08-05T08:37:33;8.50;;;2.63;;
21188;SDS011;39071;52.420;20.896;2022-08-05T08:39:59;6.07;;;2.70;;
21188;SDS011;39071;52.420;20.896;2022-08-05T08:42:25;4.15;;;2.88;;
21188;SDS011;39071;52.420;20.896;2022-08-05T08:44:55;5.75;;;2.85;;
21188;SDS011;39071;52.420;20.896;2022-08-05T08:47:23;4.93;;;2.42;;
21188;SDS011;39071;52.420;20.896;2022-08-05T08:49:51;9.73;;;2.47;;
21188;SDS011;39071;52.420;20.896;2022-08-05T08:52:39;6.97;;;2.63;;
21188;SDS011;39071;52.420;20.896;2022-08-05T08:55:06;3.53;;;2.47;;
21188;SDS011;39071;52.420;20.896;2022-08-05T08:57:33;6.22;;;2.83;;
21188;SDS011;39071;52.420;20.896;2022-08-05T08:59:58;5.10;;;2.67;;
21188;SDS011;39071;52.420;20.896;2022-08-05T09:02:25;5.28;;;2.88;;
21188;SDS011;39071;52.420;20.896;2022-08-05T09:04:52;4.05;;;2.47;;
21188;SDS011;39071;52.420;20.896;2022-08-05T09:07:17;3.40;;;2.40;;
21188;SDS011;39071;52.420;20.896;2022-08-05T09:09:43;4.97;;;2.30;;
21188;SDS011;39071;52.420;20.896;2022-08-05T09:12:09;5.28;;;2.65;;
21188;SDS011;39071;52.420;20.896;2022-08-05T09:14:35;7.78;;;2.75;;
21188;SDS011;39071;52.420;20.896;2022-08-05T09:17:03;6.05;;;2.97;;
21188;SDS011;39071;52.420;20.896;2022-08-05T09:19:30;5.43;;;2.60;;
21188;SDS011;39071;52.420;20.896;2022-08-05T09:21:55;6.93;;;2.60;;
21188;SDS011;39071;52.420;20.896;2022-08-05T09:24:21;5.28;;;2.78;;
21188;SDS011;39071;52.420;20.896;2022-08-05T09:26:49;11.55;;;2.65;;
21188;SDS011;39071;52.420;20.896;2022-08-05T09:29:15;3.35;;;2.50;;
21188;SDS011;39071;52.420;20.896;2022-08-05T09:31:41;4.45;;;2.65;;
21188;SDS011;39071;52.420;20.896;2022-08-05T09:34:10;4.85;;;2.95;;
21188;SDS011;39071;52.420;20.896;2022-08-05T09:36:39;3.00;;;2.70;;
21188;SDS011;39071;52.420;20.896;2022-08-05T09:39:17;6.20;;;3.15;;
21188;SDS011;39071;52.420;20.896;2022-08-05T09:44:38;8.13;;;2.75;;
21188;SDS011;39071;52.420;20.896;2022-08-05T09:47:07;12.45;;;3.10;;
21188;SDS011;39071;52.420;20.896;2022-08-05T09:49:33;4.97;;;3.30;;
21188;SDS011;39071;52.420;20.896;2022-08-05T09:51:58;4.40;;;2.75;;
21188;SDS011;39071;52.420;20.896;2022-08-05T09:54:58;8.35;;;3.13;;
21188;SDS011;39071;52.420;20.896;2022-08-05T09:57:42;5.72;;;2.70;;
21188;SDS011;39071;52.420;20.896;2022-08-05T10:02:44;3.92;;;2.80;;
21188;SDS011;39071;52.420;20.896;2022-08-05T10:05:18;6.43;;;3.00;;
21188;SDS011;39071;52.420;20.896;2022-08-05T10:07:58;5.47;;;2.90;;
21188;SDS011;39071;52.420;20.896;2022-08-05T10:13:11;8.10;;;3.05;;
21188;SDS011;39071;52.420;20.896;2022-08-05T10:16:03;4.82;;;2.97;;
21188;SDS011;39071;52.420;20.896;2022-08-05T10:18:29;3.42;;;2.90;;
21188;SDS011;39071;52.420;20.896;2022-08-05T10:21:00;4.95;;;2.80;;
21188;SDS011;39071;52.420;20.896;2022-08-05T10:23:32;4.10;;;2.67;;
21188;SDS011;39071;52.420;20.896;2022-08-05T10:26:07;4.82;;;2.95;;
21188;SDS011;39071;52.420;20.896;2022-08-05T10:28:36;2.85;;;2.42;;
21188;SDS011;39071;52.420;20.896;2022-08-05T10:31:02;5.82;;;3.00;;
21188;SDS011;39071;52.420;20.896;2022-08-05T10:33:29;4.75;;;3.30;;
21188;SDS011;39071;52.420;20.896;2022-08-05T10:35:57;4.72;;;3.00;;
21188;SDS011;39071;52.420;20.896;2022-08-05T10:38:24;4.57;;;3.10;;
21188;SDS011;39071;52.420;20.896;2022-08-05T10:46:45;4.90;;;3.00;;
21188;SDS011;39071;52.420;20.896;2022-08-05T10:49:16;4.10;;;2.90;;
21188;SDS011;39071;52.420;20.896;2022-08-05T10:51:44;5.43;;;3.35;;
21188;SDS011;39071;52.420;20.896;2022-08-05T10:54:11;4.60;;;3.10;;
21188;SDS011;39071;52.420;20.896;2022-08-05T11:09:16;3.88;;;2.92;;
21188;SDS011;39071;52.420;20.896;2022-08-05T11:11:44;5.05;;;3.13;;
21188;SDS011;39071;52.420;20.896;2022-08-05T11:14:11;5.10;;;3.25;;
21188;SDS011;39071;52.420;20.896;2022-08-05T11:17:00;8.80;;;3.13;;
21188;SDS011;39071;52.420;20.896;2022-08-05T11:19:50;3.63;;;2.78;;
21188;SDS011;39071;52.420;20.896;2022-08-05T11:35:57;11.10;;;3.33;;
21188;SDS011;39071;52.420;20.896;2022-08-05T11:41:23;7.78;;;3.05;;
21188;SDS011;39071;52.420;20.896;2022-08-05T11:43:57;6.90;;;3.20;;
21188;SDS011;39071;52.420;20.896;2022-08-05T11:46:25;4.57;;;3.72;;
21188;SDS011;39071;52.420;20.896;2022-08-05T11:48:51;2.80;;;2.60;;
21188;SDS011;39071;52.420;20.896;2022-08-05T11:51:17;3.25;;;2.90;;
21188;SDS011;39071;52.420;20.896;2022-08-05T11:53:44;3.65;;;3.25;;
21188;SDS011;39071;52.420;20.896;2022-08-05T11:56:10;4.40;;;2.78;;
21188;SDS011;39071;52.420;20.896;2022-08-05T11:58:37;3.90;;;2.80;;
21188;SDS011;39071;52.420;20.896;2022-08-05T12:01:05;5.13;;;2.58;;
21188;SDS011;39071;52.420;20.896;2022-08-05T12:06:19;8.20;;;3.17;;
21188;SDS011;39071;52.420;20.896;2022-08-05T12:08:53;3.65;;;3.10;;
21188;SDS011;39071;52.420;20.896;2022-08-05T12:11:25;5.82;;;2.38;;
21188;SDS011;39071;52.420;20.896;2022-08-05T12:14:02;3.13;;;2.83;;
21188;SDS011;39071;52.420;20.896;2022-08-05T12:16:33;5.03;;;3.25;;
21188;SDS011;39071;52.420;20.896;2022-08-05T12:19:00;2.63;;;2.42;;
21188;SDS011;39071;52.420;20.896;2022-08-05T12:21:34;5.50;;;3.08;;
21188;SDS011;39071;52.420;20.896;2022-08-05T12:24:07;4.72;;;2.95;;
21188;SDS011;39071;52.420;20.896;2022-08-05T12:26:34;4.03;;;3.50;;
21188;SDS011;39071;52.420;20.896;2022-08-05T12:29:03;5.45;;;3.20;;
21188;SDS011;39071;52.420;20.896;2022-08-05T12:31:31;6.57;;;2.80;;
21188;SDS011;39071;52.420;20.896;2022-08-05T12:34:00;6.57;;;2.95;;
21188;SDS011;39071;52.420;20.896;2022-08-05T12:36:27;4.18;;;3.20;;
21188;SDS011;39071;52.420;20.896;2022-08-05T12:38:55;7.80;;;2.88;;
21188;SDS011;39071;52.420;20.896;2022-08-05T12:41:21;4.97;;;3.03;;
21188;SDS011;39071;52.420;20.896;2022-08-05T12:43:51;8.27;;;2.70;;
21188;SDS011;39071;52.420;20.896;2022-08-05T12:46:24;8.93;;;3.60;;
21188;SDS011;39071;52.420;20.896;2022-08-05T12:48:58;4.35;;;3.05;;
21188;SDS011;39071;52.420;20.896;2022-08-05T12:51:27;4.32;;;3.25;;
21188;SDS011;39071;52.420;20.896;2022-08-05T12:53:59;7.82;;;3.15;;
21188;SDS011;39071;52.420;20.896;2022-08-05T12:56:27;4.95;;;3.10;;
21188;SDS011;39071;52.420;20.896;2022-08-05T12:59:13;3.58;;;3.08;;
21188;SDS011;39071;52.420;20.896;2022-08-05T13:01:44;5.45;;;2.65;;
21188;SDS011;39071;52.420;20.896;2022-08-05T13:04:19;4.13;;;3.00;;
21188;SDS011;39071;52.420;20.896;2022-08-05T13:06:45;3.35;;;3.05;;
21188;SDS011;39071;52.420;20.896;2022-08-05T13:09:12;6.03;;;2.92;;
21188;SDS011;39071;52.420;20.896;2022-08-05T13:11:39;3.38;;;3.05;;
21188;SDS011;39071;52.420;20.896;2022-08-05T13:14:25;5.50;;;3.35;;
21188;SDS011;39071;52.420;20.896;2022-08-05T13:16:52;3.55;;;2.90;;
21188;SDS011;39071;52.420;20.896;2022-08-05T13:19:25;4.43;;;3.17;;
21188;SDS011;39071;52.420;20.896;2022-08-05T13:21:53;5.82;;;3.00;;
21188;SDS011;39071;52.420;20.896;2022-08-05T13:24:22;6.47;;;3.90;;
21188;SDS011;39071;52.420;20.896;2022-08-05T13:26:48;4.65;;;3.45;;
21188;SDS011;39071;52.420;20.896;2022-08-05T13:29:15;4.00;;;3.38;;
21188;SDS011;39071;52.420;20.896;2022-08-05T13:31:41;4.45;;;3.42;;
21188;SDS011;39071;52.420;20.896;2022-08-05T13:34:08;5.35;;;3.78;;
21188;SDS011;39071;52.420;20.896;2022-08-05T13:36:34;5.22;;;3.58;;
21188;SDS011;39071;52.420;20.896;2022-08-05T13:39:01;3.58;;;3.05;;
21188;SDS011;39071;52.420;20.896;2022-08-05T13:41:28;4.05;;;3.63;;
21188;SDS011;39071;52.420;20.896;2022-08-05T13:43:54;4.72;;;4.05;;
21188;SDS011;39071;52.420;20.896;2022-08-05T13:46:23;4.60;;;3.30;;
21188;SDS011;39071;52.420;20.896;2022-08-05T13:48:50;4.78;;;3.70;;
21188;SDS011;39071;52.420;20.896;2022-08-05T13:51:23;4.82;;;3.90;;
21188;SDS011;39071;52.420;20.896;2022-08-05T13:53:54;6.07;;;4.28;;
21188;SDS011;39071;52.420;20.896;2022-08-05T13:56:19;4.00;;;3.30;;
21188;SDS011;39071;52.420;20.896;2022-08-05T13:58:45;7.82;;;3.80;;
21188;SDS011;39071;52.420;20.896;2022-08-05T14:01:11;4.38;;;3.88;;
21188;SDS011;39071;52.420;20.896;2022-08-05T14:03:37;4.25;;;3.85;;
21188;SDS011;39071;52.420;20.896;2022-08-05T14:06:02;8.68;;;4.85;;
21188;SDS011;39071;52.420;20.896;2022-08-05T14:08:28;7.57;;;3.67;;
21188;SDS011;39071;52.420;20.896;2022-08-05T14:10:54;5.38;;;3.80;;
21188;SDS011;39071;52.420;20.896;2022-08-05T14:13:20;9.32;;;3.88;;
21188;SDS011;39071;52.420;20.896;2022-08-05T14:15:45;4.32;;;3.75;;
21188;SDS011;39071;52.420;20.896;2022-08-05T14:18:11;5.53;;;3.60;;
21188;SDS011;39071;52.420;20.896;2022-08-05T14:20:37;3.92;;;3.53;;
21188;SDS011;39071;52.420;20.896;2022-08-05T14:23:03;4.50;;;4.00;;
21188;SDS011;39071;52.420;20.896;2022-08-05T14:25:29;4.03;;;3.60;;
21188;SDS011;39071;52.420;20.896;2022-08-05T14:27:54;5.72;;;3.75;;
21188;SDS011;39071;52.420;20.896;2022-08-05T14:30:20;4.53;;;3.70;;
21188;SDS011;39071;52.420;20.896;2022-08-05T14:32:46;4.30;;;3.90;;
21188;SDS011;39071;52.420;20.896;2022-08-05T14:35:12;4.80;;;3.88;;
21188;SDS011;39071;52.420;20.896;2022-08-05T14:37:38;6.65;;;3.92;;
21188;SDS011;39071;52.420;20.896;2022-08-05T14:40:04;4.38;;;3.95;;
21188;SDS011;39071;52.420;20.896;2022-08-05T14:42:30;7.97;;;3.72;;
21188;SDS011;39071;52.420;20.896;2022-08-05T14:44:56;5.50;;;4.13;;
21188;SDS011;39071;52.420;20.896;2022-08-05T14:47:22;7.55;;;4.10;;
21188;SDS011;39071;52.420;20.896;2022-08-05T14:49:48;6.43;;;3.85;;
21188;SDS011;39071;52.420;20.896;2022-08-05T14:52:14;4.45;;;4.05;;
21188;SDS011;39071;52.420;20.896;2022-08-05T14:54:39;7.65;;;3.17;;
21188;SDS011;39071;52.420;20.896;2022-08-05T14:57:05;7.32;;;3.88;;
21188;SDS011;39071;52.420;20.896;2022-08-05T14:59:31;3.60;;;3.30;;
21188;SDS011;39071;52.420;20.896;2022-08-05T15:01:56;7.28;;;3.60;;
21188;SDS011;39071;52.420;20.896;2022-08-05T15:04:22;4.57;;;3.88;;
21188;SDS011;39071;52.420;20.896;2022-08-05T15:06:49;3.83;;;3.50;;
21188;SDS011;39071;52.420;20.896;2022-08-05T15:09:15;10.38;;;4.25;;
21188;SDS011;39071;52.420;20.896;2022-08-05T15:11:44;8.55;;;3.72;;
21188;SDS011;39071;52.420;20.896;2022-08-05T15:14:10;6.15;;;4.07;;
21188;SDS011;39071;52.420;20.896;2022-08-05T15:16:36;5.45;;;3.72;;
21188;SDS011;39071;52.420;20.896;2022-08-05T15:19:02;4.95;;;3.28;;
21188;SDS011;39071;52.420;20.896;2022-08-05T15:21:27;8.38;;;3.97;;
21188;SDS011;39071;52.420;20.896;2022-08-05T15:23:53;6.75;;;3.70;;
21188;SDS011;39071;52.420;20.896;2022-08-05T15:26:19;6.00;;;3.88;;
21188;SDS011;39071;52.420;20.896;2022-08-05T15:28:44;5.13;;;3.40;;
21188;SDS011;39071;52.420;20.896;2022-08-05T15:31:10;5.85;;;3.85;;
21188;SDS011;39071;52.420;20.896;2022-08-05T15:33:36;12.73;;;3.45;;
21188;SDS011;39071;52.420;20.896;2022-08-05T15:36:05;4.38;;;3.92;;
21188;SDS011;39071;52.420;20.896;2022-08-05T15:38:31;6.93;;;4.00;;
21188;SDS011;39071;52.420;20.896;2022-08-05T15:40:57;6.47;;;3.65;;
21188;SDS011;39071;52.420;20.896;2022-08-05T15:43:23;11.50;;;4.43;;
21188;SDS011;39071;52.420;20.896;2022-08-05T15:45:49;4.70;;;4.03;;
21188;SDS011;39071;52.420;20.896;2022-08-05T15:48:14;4.53;;;4.13;;
21188;SDS011;39071;52.420;20.896;2022-08-05T15:50:40;4.32;;;3.92;;